Time;durP1;ratioP1;P1;durP2;ratioP2;P2;SDS_P1;SDS_P2;PMS_P1;PMS_P2;Temp;Humidity;BMP_temperature;BMP_pressure;BME280_temperature;BME280_humidity;BME280_pressure;Samples;Min_cycle;Max_cycle;Signal;HPM_P1;HPM_P2
2021/12/11 00:01:40;;;;;;;4.03;3.20;;;17.30;52.40;;;;;;5144370;27;44804;-92
2021/12/11 00:04:14;;;;;;;4.80;3.05;;;17.30;52.80;;;;;;5144047;27;47772;-92
2021/12/11 00:06:45;;;;;;;4.35;2.95;;;17.60;53.60;;;;;;5150049;27;44624;-92
2021/12/11 00:09:17;;;;;;;4.20;2.72;;;18.00;54.40;;;;;;5149846;27;45341;-92
2021/12/11 00:11:53;;;;;;;5.20;3.03;;;17.60;50.70;;;;;;5150798;27;45209;-92
2021/12/11 00:14:25;;;;;;;4.55;3.03;;;17.30;50.40;;;;;;5150452;27;45199;-92
2021/12/11 00:16:53;;;;;;;4.05;3.08;;;17.30;49.30;;;;;;5150957;27;44736;-92
2021/12/11 00:19:24;;;;;;;4.07;3.00;;;17.20;52.20;;;;;;5150934;27;45154;-92
2021/12/11 00:21:54;;;;;;;4.80;3.33;;;17.20;49.60;;;;;;5150407;27;45253;-92
2021/12/11 00:24:29;;;;;;;4.45;3.00;;;17.30;51.00;;;;;;5150726;27;45190;-91
2021/12/11 00:27:03;;;;;;;4.97;3.33;;;17.20;50.20;;;;;;5133055;27;44923;-92
2021/12/11 00:29:32;;;;;;;4.22;2.97;;;19.40;55.30;;;;;;5150847;27;45099;-92
2021/12/11 00:32:08;;;;;;;4.65;3.15;;;19.00;52.40;;;;;;5146466;27;44824;-92
2021/12/11 00:34:47;;;;;;;3.58;3.13;;;17.30;49.60;;;;;;5150594;27;45700;-92
2021/12/11 00:37:18;;;;;;;3.25;2.58;;;19.30;53.30;;;;;;5150469;27;45097;-91
2021/12/11 00:39:52;;;;;;;3.95;2.65;;;17.40;55.80;;;;;;5151018;27;44831;-92
2021/12/11 00:42:31;;;;;;;4.00;3.40;;;19.30;54.70;;;;;;5150846;27;44815;-92
2021/12/11 00:45:11;;;;;;;3.00;2.47;;;18.50;53.60;;;;;;5133134;27;46323;-92
2021/12/11 00:47:45;;;;;;;5.07;2.80;;;17.50;53.20;;;;;;5150878;27;45268;-92
2021/12/11 00:50:18;;;;;;;3.92;3.08;;;17.60;55.20;;;;;;5131506;27;44824;-90
2021/12/11 00:55:37;;;;;;;3.45;2.88;;;18.50;56.60;;;;;;5141566;27;45717;-89
2021/12/11 00:58:24;;;;;;;4.32;2.90;;;18.90;52.60;;;;;;5140580;27;44958;-88
2021/12/11 01:00:59;;;;;;;3.38;2.85;;;17.40;49.40;;;;;;5130655;27;45255;-88
2021/12/11 01:03:34;;;;;;;3.80;2.90;;;17.20;49.20;;;;;;5129041;27;45024;-89
2021/12/11 01:06:08;;;;;;;3.35;2.80;;;17.30;50.50;;;;;;5140733;27;45465;-89
2021/12/11 01:08:43;;;;;;;3.30;2.90;;;17.40;53.30;;;;;;5134441;27;45308;-88
2021/12/11 01:11:18;;;;;;;3.90;2.83;;;17.40;50.20;;;;;;5140163;27;44684;-88
2021/12/11 01:14:04;;;;;;;2.88;2.50;;;17.60;52.30;;;;;;5141026;27;45466;-88
2021/12/11 01:16:44;;;;;;;2.85;2.58;;;17.20;52.60;;;;;;5141730;27;45667;-88
2021/12/11 01:19:24;;;;;;;2.83;2.53;;;15.40;47.70;;;;;;5140637;27;45243;-88
2021/12/11 01:22:00;;;;;;;2.85;2.50;;;17.40;49.20;;;;;;5123039;27;45245;-88
2021/12/11 01:24:42;;;;;;;4.03;3.30;;;17.40;54.00;;;;;;5143120;27;45187;-89
2021/12/11 01:27:13;;;;;;;3.45;2.97;;;17.70;53.80;;;;;;5143725;27;45357;-89
2021/12/11 01:29:49;;;;;;;3.70;2.97;;;17.60;50.20;;;;;;5144740;27;45168;-90
2021/12/11 01:32:25;;;;;;;3.65;2.80;;;17.30;53.00;;;;;;5146142;27;45285;-90
2021/12/11 01:35:05;;;;;;;3.65;3.10;;;17.30;53.80;;;;;;5145896;27;45431;-90
2021/12/11 01:37:36;;;;;;;3.95;2.92;;;18.80;56.20;;;;;;5140259;27;47310;-90
2021/12/11 01:40:14;;;;;;;4.20;3.10;;;17.20;52.10;;;;;;5145153;27;45126;-90
2021/12/11 01:42:49;;;;;;;4.07;3.25;;;17.30;49.00;;;;;;5144931;27;45200;-89
2021/12/11 01:45:20;;;;;;;4.55;3.50;;;17.30;54.30;;;;;;5144601;27;45357;-90
2021/12/11 01:47:49;;;;;;;4.40;3.42;;;18.30;53.00;;;;;;5144406;27;47430;-90
2021/12/11 01:50:31;;;;;;;3.67;3.17;;;17.00;54.00;;;;;;5143587;27;45207;-89
2021/12/11 01:53:03;;;;;;;4.80;3.70;;;17.10;48.90;;;;;;5143432;27;45137;-89
2021/12/11 01:55:41;;;;;;;4.93;3.47;;;17.10;52.20;;;;;;5143429;27;44896;-89
2021/12/11 01:58:17;;;;;;;4.18;3.53;;;17.40;50.70;;;;;;5138295;27;45762;-90
2021/12/11 02:00:53;;;;;;;4.78;3.53;;;17.10;53.40;;;;;;5142633;27;45162;-90
2021/12/11 02:03:24;;;;;;;5.10;3.92;;;17.10;50.70;;;;;;5142110;27;46174;-90
2021/12/11 02:05:57;;;;;;;5.80;3.75;;;17.20;50.80;;;;;;5142750;27;45193;-90
2021/12/11 02:08:30;;;;;;;5.20;3.85;;;17.30;52.20;;;;;;5141661;27;46290;-90
2021/12/11 02:11:04;;;;;;;5.15;4.13;;;17.40;53.40;;;;;;5144171;27;45423;-90
2021/12/11 02:13:49;;;;;;;6.10;3.97;;;17.50;54.60;;;;;;5144874;27;45210;-91
2021/12/11 02:16:38;;;;;;;4.72;3.63;;;17.30;49.20;;;;;;5145224;27;45345;-91
2021/12/11 02:19:11;;;;;;;5.28;4.43;;;17.20;49.10;;;;;;5144619;27;45665;-90
2021/12/11 02:21:55;;;;;;;6.63;4.55;;;17.20;49.90;;;;;;5138307;27;45406;-91
2021/12/11 02:24:35;;;;;;;5.47;4.20;;;17.20;49.00;;;;;;5126998;27;45476;-90
2021/12/11 02:27:08;;;;;;;6.55;4.70;;;17.20;51.00;;;;;;5140720;27;45161;-87
2021/12/11 02:29:41;;;;;;;5.85;3.85;;;17.20;49.30;;;;;;5139429;27;47313;-87
2021/12/11 02:32:30;;;;;;;5.45;3.92;;;18.60;51.00;;;;;;5138691;27;45235;-87
2021/12/11 02:35:02;;;;;;;6.80;4.60;;;19.40;54.10;;;;;;5139423;27;45257;-87
2021/12/11 02:37:37;;;;;;;4.68;3.33;;;19.60;52.30;;;;;;5140682;27;45286;-87
2021/12/11 02:40:13;;;;;;;5.88;3.65;;;17.20;49.80;;;;;;5138857;27;47772;-86
2021/12/11 02:42:46;;;;;;;4.55;3.33;;;17.20;50.70;;;;;;5123394;27;45273;-86
2021/12/11 02:45:20;;;;;;;4.20;3.47;;;17.20;51.40;;;;;;5143426;27;44993;-86
2021/12/11 02:47:50;;;;;;;5.53;3.90;;;17.20;51.30;;;;;;5142838;27;45326;-87
2021/12/11 02:50:26;;;;;;;5.50;3.38;;;17.20;50.60;;;;;;5145968;27;45217;-86
2021/12/11 02:53:00;;;;;;;6.20;3.63;;;17.20;51.00;;;;;;5132877;27;45214;-87
2021/12/11 02:55:32;;;;;;;5.22;3.45;;;17.30;51.50;;;;;;5143991;27;45169;-87
2021/12/11 02:58:06;;;;;;;4.93;3.38;;;17.30;51.50;;;;;;5144448;27;45138;-86
2021/12/11 03:00:37;;;;;;;4.78;3.78;;;17.30;51.50;;;;;;5138739;27;46455;-87
2021/12/11 03:03:08;;;;;;;6.35;4.70;;;17.30;51.50;;;;;;5144236;27;45029;-86
2021/12/11 03:05:45;;;;;;;5.50;4.05;;;17.30;50.80;;;;;;5142812;27;45284;-87
2021/12/11 03:08:17;;;;;;;6.22;4.55;;;17.30;51.50;;;;;;5140874;27;45389;-87
2021/12/11 03:10:51;;;;;;;6.63;4.50;;;18.10;50.60;;;;;;5142076;27;45382;-87
2021/12/11 03:13:19;;;;;;;7.10;5.00;;;17.20;49.70;;;;;;5142829;27;45150;-87
2021/12/11 03:15:47;;;;;;;7.68;4.88;;;17.30;49.60;;;;;;5142987;27;45285;-87
2021/12/11 03:18:14;;;;;;;6.13;4.57;;;17.20;52.20;;;;;;5137947;27;45229;-88
2021/12/11 03:20:44;;;;;;;6.93;4.70;;;19.00;55.30;;;;;;5112013;27;45489;-88
2021/12/11 03:23:15;;;;;;;7.90;4.55;;;17.10;52.50;;;;;;5142660;27;45377;-87
2021/12/11 03:25:45;;;;;;;5.75;4.60;;;17.40;49.10;;;;;;5143744;27;45443;-88
2021/12/11 03:28:22;;;;;;;7.72;5.28;;;19.40;54.40;;;;;;5134071;27;45430;-88
2021/12/11 03:31:01;;;;;;;6.85;4.93;;;17.60;49.30;;;;;;5142398;27;45757;-87
2021/12/11 03:33:34;;;;;;;6.20;4.95;;;17.60;50.40;;;;;;5141738;27;45388;-86
2021/12/11 03:36:06;;;;;;;8.38;5.35;;;17.20;49.60;;;;;;5142292;27;45145;-87
2021/12/11 03:38:38;;;;;;;8.38;5.38;;;17.30;50.10;;;;;;5137609;27;45451;-87
2021/12/11 03:41:09;;;;;;;7.63;5.00;;;17.20;48.80;;;;;;5139206;27;48131;-87
2021/12/11 03:43:43;;;;;;;7.50;5.47;;;17.50;49.40;;;;;;5137368;27;45329;-87
2021/12/11 03:46:20;;;;;;;7.00;5.38;;;17.20;48.50;;;;;;5137710;27;45165;-87
2021/12/11 03:49:12;;;;;;;7.72;5.40;;;17.20;49.00;;;;;;5142647;27;45048;-86
2021/12/11 03:51:46;;;;;;;8.70;5.60;;;17.30;48.70;;;;;;5140823;27;46894;-86
2021/12/11 03:54:37;;;;;;;8.18;5.70;;;17.60;53.10;;;;;;5117301;27;45294;-87
2021/12/11 03:57:09;;;;;;;7.18;5.28;;;17.50;49.50;;;;;;5141292;27;45268;-87
2021/12/11 03:59:47;;;;;;;9.18;6.00;;;17.20;50.20;;;;;;5137258;27;45269;-87
2021/12/11 04:02:24;;;;;;;10.05;6.40;;;15.60;46.70;;;;;;5138782;27;45494;-88
2021/12/11 04:04:55;;;;;;;9.23;6.30;;;19.00;54.50;;;;;;5138524;27;45036;-88
2021/12/11 04:07:31;;;;;;;10.30;6.82;;;17.70;50.00;;;;;;5134158;27;45068;-89
2021/12/11 04:10:05;;;;;;;11.50;7.55;;;17.90;52.90;;;;;;5143130;27;44773;-89
2021/12/11 04:12:48;;;;;;;10.88;7.32;;;17.50;50.20;;;;;;5138460;27;46932;-88
2021/12/11 04:15:18;;;;;;;12.82;7.78;;;17.60;50.70;;;;;;5142908;27;45344;-88
2021/12/11 04:20:31;;;;;;;12.73;7.90;;;17.40;48.40;;;;;;5140371;27;45258;-88
2021/12/11 04:23:05;;;;;;;12.65;8.00;;;17.60;51.90;;;;;;5141738;27;47027;-88
2021/12/11 04:25:37;;;;;;;11.52;7.90;;;18.70;53.00;;;;;;5142978;27;45320;-88
2021/12/11 04:28:09;;;;;;;11.70;7.95;;;17.50;51.60;;;;;;5143117;27;45501;-88
2021/12/11 04:30:42;;;;;;;13.82;8.95;;;19.50;52.50;;;;;;5142518;27;45233;-88
2021/12/11 04:33:15;;;;;;;12.55;8.45;;;17.20;48.30;;;;;;5142831;27;46700;-88
2021/12/11 04:35:44;;;;;;;11.38;7.25;;;17.50;48.60;;;;;;5125660;27;45277;-88
2021/12/11 04:38:15;;;;;;;13.38;8.45;;;17.50;48.80;;;;;;5144231;27;45234;-90
2021/12/11 04:40:53;;;;;;;11.90;7.78;;;17.80;51.70;;;;;;5144410;27;45352;-90
2021/12/11 04:43:28;;;;;;;11.45;8.25;;;17.40;50.30;;;;;;5145793;27;45482;-89
2021/12/11 04:46:01;;;;;;;12.38;8.38;;;17.30;48.10;;;;;;5142558;27;45084;-87
2021/12/11 04:48:36;;;;;;;12.90;8.68;;;17.20;50.10;;;;;;5140116;27;45235;-86
2021/12/11 04:51:13;;;;;;;14.60;9.20;;;17.20;48.70;;;;;;5140670;27;45244;-86
2021/12/11 04:53:56;;;;;;;13.75;9.13;;;17.20;48.50;;;;;;5140221;27;47972;-86
2021/12/11 04:59:40;;;;;;;13.73;9.50;;;16.90;49.40;;;;;;5136670;27;45272;-87
2021/12/11 05:02:52;;;;;;;15.48;9.52;;;17.50;48.60;;;;;;5131782;27;45346;-88
2021/12/11 05:08:59;;;;;;;13.35;9.43;;;17.30;48.40;;;;;;5192522;27;44684;-82
2021/12/11 05:11:32;;;;;;;14.48;10.05;;;17.20;48.30;;;;;;5191831;27;45075;-83
2021/12/11 05:13:59;;;;;;;14.80;9.32;;;17.10;48.30;;;;;;5192700;27;45169;-83
2021/12/11 05:16:27;;;;;;;13.73;9.10;;;17.10;48.30;;;;;;5396913;22;45254;-83
2021/12/11 05:18:54;;;;;;;14.02;8.60;;;17.10;51.40;;;;;;5141619;27;48005;-83
2021/12/11 05:21:23;;;;;;;13.90;8.90;;;17.20;51.90;;;;;;5141672;27;44835;-83
2021/12/11 05:24:04;;;;;;;13.65;9.13;;;17.10;50.70;;;;;;5160444;27;45242;-84
2021/12/11 05:26:42;;;;;;;13.02;9.18;;;17.20;49.60;;;;;;5143787;27;45436;-84
2021/12/11 05:29:10;;;;;;;15.13;9.70;;;17.30;50.30;;;;;;5131113;27;45525;-85
2021/12/11 05:31:49;;;;;;;13.90;9.00;;;19.50;54.30;;;;;;5141862;27;45270;-84
2021/12/11 05:34:16;;;;;;;14.55;9.52;;;17.40;50.20;;;;;;5142063;27;45172;-85
2021/12/11 05:37:03;;;;;;;12.90;8.35;;;18.00;53.10;;;;;;5141284;27;45389;-84
2021/12/11 05:39:41;;;;;;;14.93;9.73;;;17.30;48.50;;;;;;5138873;27;45601;-85
2021/12/11 05:42:13;;;;;;;16.00;9.52;;;17.90;50.40;;;;;;5141548;27;45092;-85
2021/12/11 05:44:42;;;;;;;15.80;9.23;;;19.00;54.40;;;;;;5125846;27;44761;-86
2021/12/11 05:47:11;;;;;;;14.43;9.38;;;19.60;52.90;;;;;;5142091;27;45528;-85
2021/12/11 05:49:43;;;;;;;13.85;8.55;;;17.30;52.80;;;;;;5140789;27;45684;-85
2021/12/11 05:52:14;;;;;;;15.82;10.00;;;18.80;51.00;;;;;;5141402;27;45374;-85
2021/12/11 05:54:49;;;;;;;12.65;8.48;;;17.40;48.50;;;;;;5138574;27;45270;-85
2021/12/11 05:57:20;;;;;;;14.60;8.93;;;17.30;48.10;;;;;;5112624;27;44973;-85
2021/12/11 05:59:52;;;;;;;15.13;9.05;;;17.60;51.10;;;;;;5126176;27;45960;-83
2021/12/11 06:02:29;;;;;;;13.07;8.77;;;17.40;48.50;;;;;;5141722;27;45580;-83
2021/12/11 06:05:01;;;;;;;15.63;9.73;;;17.20;48.10;;;;;;5132162;27;44781;-83
2021/12/11 06:07:42;;;;;;;12.68;8.65;;;17.20;48.50;;;;;;5142696;27;45053;-84
2021/12/11 06:10:29;;;;;;;12.18;8.98;;;17.40;48.90;;;;;;5144997;27;45821;-83
2021/12/11 06:13:06;;;;;;;13.98;8.93;;;17.20;49.10;;;;;;5138168;27;45152;-83
2021/12/11 06:15:47;;;;;;;14.77;9.60;;;15.70;46.60;;;;;;5141764;27;44841;-84
2021/12/11 06:18:18;;;;;;;13.35;9.23;;;17.50;48.50;;;;;;5135489;27;44967;-83
2021/12/11 06:20:48;;;;;;;12.73;8.82;;;18.50;54.70;;;;;;5126059;27;45540;-84
2021/12/11 06:23:20;;;;;;;13.82;8.70;;;17.10;49.60;;;;;;5110131;27;44843;-84
2021/12/11 06:25:58;;;;;;;15.45;8.95;;;17.30;48.30;;;;;;5110322;27;45187;-85
2021/12/11 06:28:30;;;;;;;13.30;8.93;;;17.30;48.20;;;;;;5113857;27;45274;-85
2021/12/11 06:30:59;;;;;;;14.70;9.35;;;17.20;54.30;;;;;;5127020;27;47388;-85
2021/12/11 06:33:29;;;;;;;14.40;9.15;;;17.50;51.40;;;;;;5124533;27;45182;-85
2021/12/11 06:36:08;;;;;;;13.20;8.52;;;16.20;51.10;;;;;;5126849;27;45179;-85
2021/12/11 06:38:46;;;;;;;14.05;8.50;;;16.70;47.50;;;;;;5128834;27;45310;-86
2021/12/11 06:41:26;;;;;;;13.77;9.43;;;16.30;50.00;;;;;;5125950;27;46465;-85
2021/12/11 06:43:56;;;;;;;13.57;8.82;;;19.40;53.40;;;;;;5126841;27;45068;-85
2021/12/11 06:46:24;;;;;;;13.00;8.75;;;19.10;50.60;;;;;;5128271;27;44983;-83
2021/12/11 06:51:52;;;;;;;15.32;9.40;;;19.10;50.60;;;;;;5127182;27;45933;-84
2021/12/11 06:54:39;;;;;;;12.93;8.23;;;17.70;48.30;;;;;;5123105;27;45348;-84
2021/12/11 06:57:16;;;;;;;13.48;8.73;;;17.50;49.40;;;;;;5127921;27;45147;-84
2021/12/11 06:59:50;;;;;;;13.82;8.85;;;17.20;47.90;;;;;;5108320;27;45153;-84
2021/12/11 07:02:21;;;;;;;11.23;8.25;;;17.50;47.80;;;;;;5099403;27;46918;-84
2021/12/11 07:04:54;;;;;;;12.40;8.25;;;17.10;51.00;;;;;;5127219;27;44805;-84
2021/12/11 07:07:46;;;;;;;12.57;8.40;;;15.70;46.60;;;;;;5126661;27;45215;-84
2021/12/11 07:10:19;;;;;;;13.15;8.57;;;18.40;49.60;;;;;;5110027;27;44783;-84
2021/12/11 07:12:58;;;;;;;14.23;8.60;;;17.50;49.80;;;;;;5126543;27;45490;-85
2021/12/11 07:15:30;;;;;;;13.52;9.40;;;18.10;53.30;;;;;;5126718;27;45247;-84
2021/12/11 07:17:58;;;;;;;15.23;9.75;;;17.30;50.40;;;;;;5126631;27;45324;-85
2021/12/11 07:20:28;;;;;;;14.15;8.70;;;18.00;53.60;;;;;;5108780;27;45084;-85
2021/12/11 07:23:01;;;;;;;13.82;8.90;;;17.50;50.30;;;;;;5109335;27;45500;-85
2021/12/11 07:25:34;;;;;;;14.55;9.23;;;17.50;50.80;;;;;;5125961;27;45036;-86
2021/12/11 07:28:05;;;;;;;12.88;8.30;;;17.50;50.70;;;;;;5123798;27;45313;-85
2021/12/11 07:30:34;;;;;;;16.95;9.45;;;17.30;47.60;;;;;;5125927;27;45289;-86
2021/12/11 07:33:08;;;;;;;14.93;9.13;;;18.30;52.50;;;;;;5126287;27;46825;-83
2021/12/11 07:35:40;;;;;;;15.27;9.63;;;17.20;47.70;;;;;;5088541;28;45061;-83
2021/12/11 07:38:16;;;;;;;13.77;9.35;;;18.90;53.10;;;;;;5117662;27;45321;-84
2021/12/11 07:40:49;;;;;;;14.60;9.50;;;15.90;47.40;;;;;;5106898;28;45325;-84
2021/12/11 07:43:21;;;;;;;15.27;9.45;;;16.90;47.40;;;;;;5120152;27;46070;-84
2021/12/11 07:45:53;;;;;;;14.55;9.20;;;17.40;51.00;;;;;;5126582;27;45146;-83
2021/12/11 07:48:23;;;;;;;15.65;9.88;;;17.30;48.10;;;;;;5126164;27;45037;-84
2021/12/11 07:50:51;;;;;;;16.02;9.65;;;17.20;48.20;;;;;;5109070;27;44850;-83
2021/12/11 07:53:31;;;;;;;14.77;8.68;;;17.30;48.00;;;;;;5108118;27;46609;-84
2021/12/11 07:56:01;;;;;;;14.77;9.30;;;17.70;53.70;;;;;;5124661;27;45230;-85
2021/12/11 07:58:32;;;;;;;13.35;8.75;;;17.50;50.00;;;;;;5119241;27;44749;-84
2021/12/11 08:01:06;;;;;;;13.77;9.13;;;17.80;53.80;;;;;;5099969;27;45000;-84
2021/12/11 08:03:39;;;;;;;13.55;8.63;;;17.50;52.50;;;;;;5106573;27;45147;-85
2021/12/11 08:06:15;;;;;;;15.82;10.05;;;19.50;52.30;;;;;;5124650;27;45157;-85
2021/12/11 08:08:45;;;;;;;13.07;8.95;;;17.30;47.70;;;;;;5125270;27;44668;-85
2021/12/11 08:11:17;;;;;;;15.73;9.45;;;17.20;48.00;;;;;;5124136;27;45988;-84
2021/12/11 08:13:53;;;;;;;15.75;9.68;;;19.30;55.10;;;;;;5123017;27;47608;-83
2021/12/11 08:16:43;;;;;;;15.40;8.88;;;17.40;47.70;;;;;;5125689;27;45538;-84
2021/12/11 08:19:39;;;;;;;15.27;9.35;;;17.30;48.90;;;;;;5131546;27;45230;-84
2021/12/11 08:22:16;;;;;;;17.88;9.85;;;17.60;48.30;;;;;;5125033;27;44877;-85
2021/12/11 08:24:44;;;;;;;15.13;9.85;;;17.10;47.80;;;;;;5124912;27;46673;-86
2021/12/11 08:27:15;;;;;;;15.38;9.55;;;17.00;54.30;;;;;;5125348;27;45231;-85
2021/12/11 08:29:53;;;;;;;15.77;9.55;;;17.70;48.30;;;;;;5124845;27;45195;-85
2021/12/11 08:32:24;;;;;;;16.90;9.90;;;17.20;48.30;;;;;;5114837;27;45359;-85
2021/12/11 08:35:01;;;;;;;15.48;10.05;;;17.30;48.10;;;;;;5123979;27;45671;-84
2021/12/11 08:37:29;;;;;;;16.13;9.88;;;17.40;48.30;;;;;;5110940;27;45331;-84
2021/12/11 08:40:07;;;;;;;14.52;9.40;;;17.10;49.20;;;;;;5125379;27;45451;-83
2021/12/11 08:42:37;;;;;;;15.75;9.57;;;17.20;48.30;;;;;;5125315;27;45495;-85
2021/12/11 08:45:10;;;;;;;16.17;9.77;;;17.20;48.40;;;;;;5125785;27;45225;-83
2021/12/11 08:47:49;;;;;;;14.80;9.75;;;17.20;48.30;;;;;;5124432;27;45167;-84
2021/12/11 08:50:29;;;;;;;16.02;9.20;;;17.50;48.60;;;;;;5107458;27;45246;-84
2021/12/11 08:53:01;;;;;;;16.08;9.57;;;16.50;52.50;;;;;;5124026;27;45203;-83
2021/12/11 08:55:43;;;;;;;17.02;10.60;;;17.60;48.70;;;;;;5109604;27;45479;-84
2021/12/11 08:58:25;;;;;;;15.73;9.35;;;17.20;48.90;;;;;;5125633;27;45179;-83
2021/12/11 09:01:08;;;;;;;14.65;9.70;;;17.20;48.50;;;;;;5105447;28;45307;-84
2021/12/11 09:03:57;;;;;;;14.27;9.23;;;17.20;48.30;;;;;;5114127;27;44848;-84
2021/12/11 09:09:21;;;;;;;14.88;9.32;;;17.10;48.30;;;;;;5113595;27;45495;-83
2021/12/11 09:12:00;;;;;;;15.85;9.65;;;17.20;48.50;;;;;;5123083;27;45713;-83
2021/12/11 09:14:35;;;;;;;15.18;9.23;;;17.10;50.50;;;;;;5096571;27;45190;-83
2021/12/11 09:17:09;;;;;;;13.93;9.38;;;17.20;48.60;;;;;;5123701;27;47204;-85
2021/12/11 09:19:39;;;;;;;13.77;8.82;;;17.10;48.60;;;;;;5124357;27;44806;-84
2021/12/11 09:22:14;;;;;;;14.18;9.23;;;17.20;50.60;;;;;;5123775;27;45255;-84
2021/12/11 09:24:49;;;;;;;14.40;9.15;;;17.10;51.10;;;;;;5118609;27;45111;-84
2021/12/11 09:27:24;;;;;;;13.65;8.80;;;17.10;49.40;;;;;;5116447;27;46856;-83
2021/12/11 09:30:04;;;;;;;13.98;8.80;;;17.10;50.30;;;;;;5124015;27;44840;-85
2021/12/11 09:32:43;;;;;;;13.88;8.93;;;17.50;51.80;;;;;;5124344;27;45108;-85
2021/12/11 09:35:17;;;;;;;15.73;9.15;;;17.50;49.60;;;;;;5125215;27;45088;-84
2021/12/11 09:37:54;;;;;;;13.20;8.48;;;17.20;48.90;;;;;;5126396;27;47339;-84
2021/12/11 09:40:58;;;;;;;12.55;8.35;;;17.40;49.90;;;;;;5104491;28;45066;-84
2021/12/11 09:43:57;;;;;;;13.60;8.88;;;17.20;48.40;;;;;;5120016;27;45124;-84
2021/12/11 09:46:30;;;;;;;15.55;9.55;;;17.20;48.40;;;;;;5107811;27;44921;-84
2021/12/11 09:48:59;;;;;;;14.35;8.90;;;17.50;52.70;;;;;;5120338;27;47975;-82
2021/12/11 09:51:31;;;;;;;11.15;7.32;;;17.80;53.50;;;;;;5118890;27;45165;-82
2021/12/11 09:54:04;;;;;;;11.65;7.35;;;17.00;50.40;;;;;;5134389;27;45247;-85
2021/12/11 09:56:34;;;;;;;10.70;7.03;;;19.20;54.60;;;;;;5146009;27;45045;-84
2021/12/11 09:59:11;;;;;;;11.00;6.68;;;19.50;55.30;;;;;;5117811;27;47864;-84
2021/12/11 10:01:44;;;;;;;10.73;6.47;;;17.30;55.60;;;;;;5109431;27;44718;-84
2021/12/11 10:04:17;;;;;;;12.10;7.60;;;17.50;51.80;;;;;;5124915;27;44909;-82
2021/12/11 10:07:02;;;;;;;10.95;6.97;;;17.10;51.20;;;;;;5120730;27;45462;-82
2021/12/11 10:09:34;;;;;;;8.68;6.07;;;17.30;50.70;;;;;;5123951;27;46941;-83
2021/12/11 10:12:07;;;;;;;7.22;5.30;;;17.30;50.70;;;;;;5123866;27;45002;-83
2021/12/11 10:14:38;;;;;;;8.38;5.18;;;17.30;51.50;;;;;;5118596;27;45203;-82
2021/12/11 10:17:11;;;;;;;7.88;5.05;;;17.30;51.50;;;;;;5119679;27;45385;-84
2021/12/11 10:19:40;;;;;;;7.82;5.18;;;17.30;51.50;;;;;;5133211;27;45322;-84
2021/12/11 10:22:12;;;;;;;7.65;4.97;;;17.30;51.80;;;;;;5106733;27;45101;-82
2021/12/11 10:24:41;;;;;;;6.82;4.30;;;17.40;51.80;;;;;;5124152;27;44806;-83
2021/12/11 10:27:12;;;;;;;7.40;4.40;;;17.40;51.70;;;;;;5123990;27;45165;-82
2021/12/11 10:29:42;;;;;;;7.05;4.80;;;17.40;52.40;;;;;;5124766;27;47773;-83
2021/12/11 10:32:15;;;;;;;6.20;4.45;;;17.40;52.70;;;;;;5127081;27;45179;-84
2021/12/11 10:34:45;;;;;;;6.75;4.55;;;17.40;52.30;;;;;;5125810;27;45235;-83
2021/12/11 10:37:17;;;;;;;7.65;5.05;;;17.40;51.70;;;;;;5126434;27;45084;-84
2021/12/11 10:39:46;;;;;;;8.18;5.38;;;17.40;51.80;;;;;;5126631;27;47559;-84
2021/12/11 10:42:14;;;;;;;6.13;4.28;;;17.40;52.50;;;;;;5125982;27;45315;-85
2021/12/11 10:44:48;;;;;;;6.38;4.13;;;17.30;53.40;;;;;;5126892;27;44768;-85
2021/12/11 10:47:30;;;;;;;6.25;4.20;;;17.50;52.90;;;;;;5126524;27;44945;-85
2021/12/11 10:50:05;;;;;;;5.57;3.78;;;17.30;52.00;;;;;;5104235;27;45331;-84
2021/12/11 10:52:37;;;;;;;7.65;4.20;;;17.60;52.40;;;;;;5126892;27;45305;-84
2021/12/11 10:55:12;;;;;;;5.97;3.78;;;17.30;52.30;;;;;;5126028;27;45292;-84
2021/12/11 10:57:45;;;;;;;5.90;3.58;;;18.80;55.70;;;;;;5109361;27;45243;-84
2021/12/11 11:00:23;;;;;;;6.57;3.47;;;17.40;51.60;;;;;;5121136;27;47586;-82
2021/12/11 11:02:53;;;;;;;4.50;3.03;;;17.30;51.50;;;;;;5126255;27;46211;-84
2021/12/11 11:05:25;;;;;;;3.70;2.75;;;17.30;51.90;;;;;;5126866;27;45141;-84
2021/12/11 11:07:58;;;;;;;3.97;2.65;;;17.30;52.60;;;;;;5119675;27;45326;-85
2021/12/11 11:10:33;;;;;;;13.25;2.53;;;17.40;53.60;;;;;;5120080;27;46510;-84
2021/12/11 11:13:04;;;;;;;6.05;2.50;;;17.60;53.90;;;;;;5118970;27;45088;-83
2021/12/11 11:15:35;;;;;;;7.07;2.47;;;17.30;57.00;;;;;;5107489;27;45260;-85
2021/12/11 11:18:18;;;;;;;3.92;2.17;;;19.40;58.80;;;;;;5125427;27;45179;-85
2021/12/11 11:20:49;;;;;;;9.45;2.28;;;17.50;59.10;;;;;;5122673;27;45714;-84
2021/12/11 11:23:19;;;;;;;7.93;2.17;;;19.90;60.50;;;;;;5119256;27;45263;-85
2021/12/11 11:25:53;;;;;;;8.50;2.17;;;17.60;58.60;;;;;;5125588;27;44742;-84
2021/12/11 11:28:35;;;;;;;3.58;1.95;;;18.00;59.40;;;;;;5123716;27;45203;-85
2021/12/11 11:31:07;;;;;;;5.80;1.70;;;17.50;54.70;;;;;;5123880;27;46507;-81
2021/12/11 11:33:35;;;;;;;5.68;2.35;;;17.50;53.70;;;;;;5114575;27;45415;-83
2021/12/11 11:36:09;;;;;;;4.50;2.10;;;17.50;54.00;;;;;;5117708;27;45427;-85
2021/12/11 11:38:41;;;;;;;3.88;1.77;;;17.50;55.00;;;;;;5119974;27;45377;-88
2021/12/11 11:41:12;;;;;;;9.75;2.25;;;17.50;55.50;;;;;;5117596;27;48352;-86
2021/12/11 11:43:48;;;;;;;3.97;1.60;;;18.00;55.70;;;;;;5123865;27;45038;-85
2021/12/11 11:46:30;;;;;;;3.70;1.42;;;17.60;57.40;;;;;;5125129;27;44812;-84
2021/12/11 11:49:06;;;;;;;4.93;1.75;;;17.50;58.10;;;;;;5119772;27;45260;-84
2021/12/11 11:51:59;;;;;;;2.97;1.50;;;17.50;53.90;;;;;;5124851;27;45120;-84
2021/12/11 11:54:32;;;;;;;2.80;1.55;;;17.70;53.70;;;;;;5124274;27;45330;-84
2021/12/11 11:57:03;;;;;;;3.28;1.63;;;17.60;53.60;;;;;;5124542;27;45322;-84
2021/12/11 11:59:36;;;;;;;3.47;1.40;;;17.50;55.50;;;;;;5107582;27;44836;-84
2021/12/11 12:02:18;;;;;;;2.53;1.30;;;18.10;59.10;;;;;;5124914;27;45148;-84
2021/12/11 12:04:52;;;;;;;2.15;1.20;;;18.40;55.40;;;;;;5125224;27;45217;-84
2021/12/11 12:07:26;;;;;;;3.13;1.60;;;17.50;54.20;;;;;;5125373;27;45329;-85
2021/12/11 12:09:58;;;;;;;3.22;1.23;;;17.50;57.40;;;;;;5104647;27;44817;-86
2021/12/11 12:12:26;;;;;;;2.00;1.20;;;17.60;53.40;;;;;;5123382;27;46368;-85
2021/12/11 12:14:59;;;;;;;2.53;1.35;;;19.40;60.30;;;;;;5124436;27;45659;-85
2021/12/11 12:17:33;;;;;;;2.78;1.27;;;17.60;57.00;;;;;;5122709;27;44677;-85
2021/12/11 12:20:02;;;;;;;2.42;1.15;;;17.60;55.10;;;;;;5125722;27;45354;-84
2021/12/11 12:22:31;;;;;;;2.33;1.23;;;17.50;55.80;;;;;;5116973;27;45732;-84
2021/12/11 12:24:59;;;;;;;3.25;1.48;;;19.20;56.80;;;;;;5124550;27;45295;-84
2021/12/11 12:27:34;;;;;;;3.40;1.23;;;17.60;57.60;;;;;;5121098;27;45235;-84
2021/12/11 12:30:08;;;;;;;4.03;1.25;;;17.60;57.40;;;;;;5122866;27;44873;-84
2021/12/11 12:32:41;;;;;;;1.80;1.15;;;17.50;55.20;;;;;;5123380;27;45758;-86
2021/12/11 12:35:22;;;;;;;4.40;1.00;;;19.80;57.30;;;;;;5120530;27;45076;-85
2021/12/11 12:37:51;;;;;;;3.70;1.10;;;17.60;60.30;;;;;;5125106;27;45256;-88
2021/12/11 12:40:27;;;;;;;3.28;1.08;;;17.50;58.90;;;;;;5122851;27;45255;-86
2021/12/11 12:43:06;;;;;;;2.63;1.10;;;18.00;59.60;;;;;;5122420;27;47105;-86
2021/12/11 12:45:36;;;;;;;2.55;1.10;;;18.60;56.20;;;;;;5115768;27;45259;-82
2021/12/11 12:48:08;;;;;;;2.60;0.95;;;19.30;59.90;;;;;;5118885;27;45245;-82
2021/12/11 12:50:39;;;;;;;3.03;1.17;;;18.30;58.00;;;;;;5093842;27;45441;-81
2021/12/11 12:53:06;;;;;;;3.47;1.17;;;17.40;55.60;;;;;;5105498;27;48941;-78
2021/12/11 12:55:39;;;;;;;154.95;9.93;;;17.50;55.80;;;;;;5103746;27;45665;-78
2021/12/11 12:58:10;;;;;;;44.38;3.97;;;17.50;56.10;;;;;;5103025;27;45207;-78
2021/12/11 13:00:42;;;;;;;46.15;3.67;;;17.50;56.00;;;;;;5105305;27;45233;-78
2021/12/11 13:03:14;;;;;;;26.83;2.80;;;17.50;54.70;;;;;;5106685;27;47174;-78
2021/12/11 13:05:44;;;;;;;18.92;2.53;;;17.50;55.50;;;;;;5107618;27;45285;-77
2021/12/11 13:08:21;;;;;;;53.80;3.17;;;17.60;56.20;;;;;;5105473;27;45532;-78
2021/12/11 13:10:52;;;;;;;21.40;2.40;;;17.70;57.30;;;;;;5103576;27;46340;-78
2021/12/11 13:13:20;;;;;;;16.42;3.10;;;17.60;56.40;;;;;;5106768;27;48290;-77
2021/12/11 13:15:52;;;;;;;25.20;2.83;;;17.60;55.90;;;;;;5105561;27;45449;-77
2021/12/11 13:18:22;;;;;;;13.90;2.20;;;17.60;56.50;;;;;;5107555;27;45400;-79
2021/12/11 13:20:54;;;;;;;21.88;2.20;;;17.60;57.40;;;;;;5104954;27;45638;-78
2021/12/11 13:23:21;;;;;;;19.70;2.40;;;17.70;58.10;;;;;;5107859;27;46272;-80
2021/12/11 13:25:53;;;;;;;25.80;2.88;;;17.80;58.50;;;;;;5108026;27;45313;-79
2021/12/11 13:28:22;;;;;;;12.48;2.30;;;17.80;58.00;;;;;;5108790;27;45325;-79
2021/12/11 13:30:53;;;;;;;9.95;2.50;;;17.70;57.70;;;;;;5113440;27;45579;-79
2021/12/11 13:33:25;;;;;;;9.73;1.95;;;17.70;57.40;;;;;;5110217;27;46203;-80
2021/12/11 13:35:55;;;;;;;8.30;1.95;;;17.70;57.40;;;;;;5115199;27;45405;-79